Time;durP1;ratioP1;P1;durP2;ratioP2;P2;SDS_P1;SDS_P2;PMS_P1;PMS_P2;Temp;Humidity;BMP_temperature;BMP_pressure;BME280_temperature;BME280_humidity;BME280_pressure;Samples;Min_cycle;Max_cycle;Signal;HPM_P1;HPM_P2
2022/10/12 00:00:24;;;;;;;7.68;3.45;;;6.30;99.90;;;;;;4846592;29;20054;-82
2022/10/12 00:02:51;;;;;;;5.07;3.25;;;6.20;99.90;;;;;;4853322;29;20109;-82
2022/10/12 00:05:19;;;;;;;8.40;3.63;;;6.20;99.90;;;;;;4847789;29;20073;-82
2022/10/12 00:07:45;;;;;;;7.57;3.85;;;6.40;99.90;;;;;;4851448;29;20053;-82
2022/10/12 00:10:11;;;;;;;5.93;4.25;;;6.40;99.90;;;;;;4843419;29;20042;-82
2022/10/12 00:12:36;;;;;;;5.65;3.80;;;6.40;99.90;;;;;;4849268;29;20046;-82
2022/10/12 00:15:02;;;;;;;6.40;4.47;;;6.30;99.90;;;;;;4848133;29;20081;-82
2022/10/12 00:17:28;;;;;;;7.75;3.95;;;6.40;99.90;;;;;;4817827;29;20041;-82
2022/10/12 00:19:54;;;;;;;5.55;4.05;;;6.20;99.90;;;;;;4849168;29;20048;-82
2022/10/12 00:22:19;;;;;;;5.85;3.60;;;6.30;99.90;;;;;;4833346;29;20046;-82
2022/10/12 00:24:45;;;;;;;5.80;3.60;;;6.20;99.90;;;;;;4830892;29;20068;-82
2022/10/12 00:27:13;;;;;;;5.85;3.50;;;6.40;99.90;;;;;;4815689;29;20038;-82
2022/10/12 00:29:39;;;;;;;5.35;3.78;;;6.20;99.90;;;;;;4835751;29;20207;-82
2022/10/12 00:32:05;;;;;;;6.47;3.80;;;6.20;99.90;;;;;;4850453;29;20524;-82
2022/10/12 00:34:30;;;;;;;8.05;4.07;;;6.20;99.90;;;;;;4811428;29;20081;-82
2022/10/12 00:36:56;;;;;;;6.72;4.32;;;6.20;99.90;;;;;;4831921;29;20465;-82
2022/10/12 00:39:22;;;;;;;5.55;4.00;;;6.20;99.90;;;;;;4836223;29;20045;-82
2022/10/12 00:41:47;;;;;;;5.45;3.90;;;6.40;99.90;;;;;;4858271;29;20041;-82
2022/10/12 00:44:33;;;;;;;7.90;4.18;;;6.10;99.90;;;;;;4833718;29;20049;-82
2022/10/12 00:47:02;;;;;;;10.20;4.85;;;6.20;99.90;;;;;;4851239;29;20413;-82
2022/10/12 00:49:28;;;;;;;7.75;5.00;;;6.20;99.90;;;;;;4843960;29;20044;-82
2022/10/12 00:52:06;;;;;;;8.77;4.88;;;6.20;99.90;;;;;;4835601;29;20033;-82
2022/10/12 00:54:36;;;;;;;6.47;4.55;;;6.20;99.90;;;;;;4823818;29;20068;-82
2022/10/12 00:57:04;;;;;;;9.07;5.32;;;6.10;99.90;;;;;;4818597;29;20053;-82
2022/10/12 00:59:53;;;;;;;10.10;4.32;;;6.20;99.90;;;;;;4851526;29;20038;-82
2022/10/12 01:02:21;;;;;;;8.10;5.47;;;6.00;99.90;;;;;;4848924;29;20058;-83
2022/10/12 01:04:47;;;;;;;8.63;5.60;;;6.00;99.90;;;;;;4849725;29;20402;-82
2022/10/12 01:07:13;;;;;;;7.93;5.60;;;6.20;99.90;;;;;;4819670;29;20037;-83
2022/10/12 01:09:39;;;;;;;8.68;5.70;;;6.10;99.90;;;;;;4835888;29;20767;-82
2022/10/12 01:12:06;;;;;;;10.30;5.25;;;6.10;99.90;;;;;;4847783;29;20086;-82
2022/10/12 01:14:33;;;;;;;10.00;5.13;;;6.10;99.90;;;;;;4836920;29;20051;-82
2022/10/12 01:17:22;;;;;;;6.97;4.75;;;6.00;99.90;;;;;;4825515;29;20077;-82
2022/10/12 01:20:05;;;;;;;7.32;5.20;;;5.90;99.90;;;;;;4835516;29;20218;-82
2022/10/12 01:22:38;;;;;;;8.63;5.10;;;5.90;99.90;;;;;;4832658;29;20182;-82
2022/10/12 01:25:28;;;;;;;7.55;5.25;;;6.10;99.90;;;;;;4858211;29;20073;-82
2022/10/12 01:28:02;;;;;;;10.10;5.35;;;6.00;99.90;;;;;;4828132;29;20045;-82
2022/10/12 01:30:35;;;;;;;7.90;5.63;;;5.90;99.90;;;;;;4824624;29;20214;-82
2022/10/12 01:33:10;;;;;;;9.18;5.35;;;5.90;99.90;;;;;;4848328;29;20476;-82
2022/10/12 01:36:11;;;;;;;126.97;12.52;;;6.00;99.90;;;;;;4848903;29;20117;-82
2022/10/12 01:38:42;;;;;;;23.98;6.40;;;5.90;99.90;;;;;;4849295;29;20364;-82
2022/10/12 01:41:13;;;;;;;11.23;5.22;;;5.80;99.90;;;;;;4854717;29;20050;-82
2022/10/12 01:43:45;;;;;;;9.73;5.70;;;5.90;99.90;;;;;;4832935;29;20075;-82
2022/10/12 01:46:14;;;;;;;9.73;5.07;;;6.00;99.90;;;;;;4856347;29;20038;-82
2022/10/12 01:48:42;;;;;;;9.48;6.30;;;6.00;99.90;;;;;;4859054;29;20047;-82
2022/10/12 01:51:11;;;;;;;11.35;6.95;;;5.90;99.90;;;;;;4857927;29;20126;-82
2022/10/12 01:53:56;;;;;;;11.18;6.72;;;5.90;99.90;;;;;;4842696;29;20050;-82
2022/10/12 01:56:29;;;;;;;12.50;7.18;;;6.20;99.90;;;;;;4856426;29;20109;-82
2022/10/12 01:59:10;;;;;;;8.70;6.40;;;6.10;99.90;;;;;;4819216;29;20113;-82
2022/10/12 02:01:42;;;;;;;11.63;6.75;;;6.00;99.90;;;;;;4847110;29;20064;-82
2022/10/12 02:04:25;;;;;;;8.10;5.35;;;5.90;99.90;;;;;;4847334;29;20419;-82
2022/10/12 02:06:58;;;;;;;8.98;5.47;;;6.10;99.90;;;;;;4829689;29;20077;-82
2022/10/12 02:09:27;;;;;;;9.38;5.43;;;6.10;99.90;;;;;;4846219;29;20314;-82
2022/10/12 02:11:56;;;;;;;8.75;5.82;;;6.10;99.90;;;;;;4845634;29;20054;-82
2022/10/12 02:14:30;;;;;;;7.65;5.90;;;6.00;99.90;;;;;;4843767;29;20057;-82
2022/10/12 02:17:01;;;;;;;11.30;5.17;;;6.00;99.90;;;;;;4847782;29;20045;-83
2022/10/12 02:19:33;;;;;;;11.43;5.57;;;6.20;99.90;;;;;;4859120;29;20575;-82
2022/10/12 02:22:06;;;;;;;8.45;5.53;;;6.10;99.90;;;;;;4840019;29;20139;-82
2022/10/12 02:24:37;;;;;;;7.57;5.40;;;6.20;99.90;;;;;;4830834;29;20048;-82
2022/10/12 02:27:05;;;;;;;9.85;5.05;;;6.10;99.90;;;;;;4845046;29;20516;-82
2022/10/12 02:29:40;;;;;;;8.48;4.65;;;6.10;99.90;;;;;;4814348;29;20409;-82
2022/10/12 02:32:18;;;;;;;11.05;4.70;;;6.20;99.90;;;;;;4830810;29;20129;-82
2022/10/12 02:34:47;;;;;;;8.18;5.25;;;6.20;99.90;;;;;;4828505;29;20049;-82
2022/10/12 02:37:22;;;;;;;14.73;5.93;;;6.10;99.90;;;;;;4840825;29;20225;-82
2022/10/12 02:39:49;;;;;;;8.82;5.63;;;6.20;99.90;;;;;;4845144;29;20491;-82
2022/10/12 02:42:21;;;;;;;8.20;5.20;;;6.30;99.90;;;;;;4858007;29;20057;-82
2022/10/12 02:44:52;;;;;;;6.15;5.13;;;6.20;99.90;;;;;;4811511;29;20065;-82
2022/10/12 02:47:22;;;;;;;8.88;5.85;;;6.20;99.90;;;;;;4834426;29;20073;-82
2022/10/12 02:49:49;;;;;;;11.05;5.45;;;6.20;99.90;;;;;;4842456;29;20042;-83
2022/10/12 02:52:15;;;;;;;7.82;4.90;;;6.30;99.90;;;;;;4834108;29;20045;-83
2022/10/12 02:54:40;;;;;;;10.10;4.88;;;6.40;99.90;;;;;;4852000;29;20050;-82
2022/10/12 02:57:07;;;;;;;8.65;5.15;;;6.30;99.90;;;;;;4850253;29;20049;-82
2022/10/12 02:59:33;;;;;;;10.95;5.22;;;6.20;99.90;;;;;;4847999;29;20170;-82
2022/10/12 03:01:58;;;;;;;11.20;5.70;;;6.10;99.90;;;;;;4839692;29;20054;-82
2022/10/12 03:04:24;;;;;;;10.55;5.50;;;6.30;99.90;;;;;;4839745;29;20125;-82
2022/10/12 03:06:49;;;;;;;11.35;5.07;;;6.20;99.90;;;;;;4835616;29;20060;-82
2022/10/12 03:09:15;;;;;;;6.95;4.43;;;6.30;99.90;;;;;;4834427;29;20041;-82
2022/10/12 03:11:44;;;;;;;8.13;4.60;;;6.20;99.90;;;;;;4834271;29;20064;-82
2022/10/12 03:14:14;;;;;;;7.25;4.20;;;6.10;99.90;;;;;;4836863;29;20081;-82
2022/10/12 03:16:40;;;;;;;5.78;3.30;;;6.00;99.90;;;;;;4823912;29;20413;-82
2022/10/12 03:19:06;;;;;;;9.10;4.93;;;6.00;99.90;;;;;;4821526;29;20081;-82
2022/10/12 03:21:31;;;;;;;7.03;4.55;;;6.20;99.90;;;;;;4836992;29;20469;-82
2022/10/12 03:23:57;;;;;;;14.43;5.30;;;6.10;99.90;;;;;;4834043;29;20040;-82
2022/10/12 03:26:23;;;;;;;7.38;4.70;;;6.10;99.90;;;;;;4842865;29;20042;-82
2022/10/12 03:28:52;;;;;;;9.68;5.28;;;6.00;99.90;;;;;;4807749;29;20053;-82
2022/10/12 03:31:17;;;;;;;8.38;5.10;;;6.10;99.90;;;;;;4858142;29;20050;-82
2022/10/12 03:33:43;;;;;;;9.98;5.43;;;6.00;99.90;;;;;;4855578;29;20259;-83
2022/10/12 03:36:12;;;;;;;7.82;4.65;;;6.00;99.90;;;;;;4862316;29;20156;-82
2022/10/12 03:38:37;;;;;;;9.88;4.75;;;6.20;99.90;;;;;;4850715;29;20128;-82
2022/10/12 03:41:05;;;;;;;5.88;4.00;;;6.10;99.90;;;;;;4859059;29;20299;-82
2022/10/12 03:43:31;;;;;;;11.68;5.00;;;6.00;99.90;;;;;;4834556;29;21227;-82
2022/10/12 03:45:57;;;;;;;9.00;4.80;;;6.00;99.90;;;;;;4836541;29;20041;-82
2022/10/12 03:48:25;;;;;;;7.05;4.95;;;6.10;99.90;;;;;;4816799;29;20137;-82
2022/10/12 03:50:51;;;;;;;8.70;4.88;;;6.20;99.90;;;;;;4845426;29;20451;-82
2022/10/12 03:53:19;;;;;;;7.70;5.13;;;6.20;99.90;;;;;;4833540;29;20059;-83
2022/10/12 03:55:45;;;;;;;11.52;5.47;;;6.20;99.90;;;;;;4832825;29;20108;-82
2022/10/12 03:58:12;;;;;;;7.72;5.15;;;6.30;99.90;;;;;;4845709;29;20551;-83
2022/10/12 04:00:38;;;;;;;8.55;4.85;;;6.30;99.90;;;;;;4850316;29;20113;-83
2022/10/12 04:03:03;;;;;;;9.15;5.47;;;6.20;99.90;;;;;;4860244;29;20495;-82
2022/10/12 04:05:30;;;;;;;9.25;4.97;;;6.30;99.90;;;;;;4846920;29;20042;-83
2022/10/12 04:07:56;;;;;;;8.88;4.93;;;6.20;99.90;;;;;;4818054;29;20073;-82
2022/10/12 04:10:22;;;;;;;9.70;5.80;;;6.20;99.90;;;;;;4848730;29;20077;-82
2022/10/12 04:12:47;;;;;;;12.02;5.85;;;6.40;99.90;;;;;;4811558;29;20215;-83
2022/10/12 04:15:13;;;;;;;16.30;6.35;;;6.30;99.90;;;;;;4848844;29;20045;-82
2022/10/12 04:17:39;;;;;;;19.30;6.82;;;6.40;99.90;;;;;;4848492;29;20049;-82
2022/10/12 04:20:06;;;;;;;11.55;6.00;;;6.20;99.90;;;;;;4828549;29;20057;-83
2022/10/12 04:22:32;;;;;;;12.95;6.20;;;6.50;99.90;;;;;;4850799;29;20182;-83
2022/10/12 04:24:57;;;;;;;12.40;6.78;;;6.40;99.90;;;;;;4830237;29;20522;-82
2022/10/12 04:27:23;;;;;;;11.98;6.70;;;6.30;99.90;;;;;;4849717;29;20277;-83
2022/10/12 04:29:49;;;;;;;17.08;7.03;;;6.30;99.90;;;;;;4848688;29;20071;-83
2022/10/12 04:32:18;;;;;;;15.02;7.90;;;6.40;99.90;;;;;;4823470;29;20049;-83
2022/10/12 04:34:43;;;;;;;13.30;7.38;;;6.40;99.90;;;;;;4808672;29;20057;-83
2022/10/12 04:37:09;;;;;;;17.40;7.97;;;6.40;99.90;;;;;;4859646;29;20044;-83
2022/10/12 04:39:35;;;;;;;19.30;7.38;;;6.50;99.90;;;;;;4848710;29;20046;-82
2022/10/12 04:42:01;;;;;;;12.05;7.07;;;6.30;99.90;;;;;;4848460;29;20117;-83
2022/10/12 04:44:26;;;;;;;15.32;7.60;;;6.50;99.90;;;;;;4850002;29;20402;-83
2022/10/12 04:46:52;;;;;;;10.50;6.95;;;6.40;99.90;;;;;;4845907;29;20033;-82
2022/10/12 04:49:18;;;;;;;12.80;6.32;;;6.40;99.90;;;;;;4842603;29;20585;-83
2022/10/12 04:51:43;;;;;;;13.05;6.18;;;6.50;99.90;;;;;;4844278;29;20568;-83
2022/10/12 04:54:10;;;;;;;13.27;7.00;;;6.40;99.90;;;;;;4813468;29;20098;-83
2022/10/12 04:56:35;;;;;;;11.82;6.53;;;6.30;99.90;;;;;;4848732;29;20050;-82
2022/10/12 04:59:01;;;;;;;13.55;6.85;;;6.20;99.90;;;;;;4857603;29;20064;-83
2022/10/12 05:01:30;;;;;;;13.13;6.65;;;6.30;99.90;;;;;;4820833;29;20057;-82
2022/10/12 05:03:55;;;;;;;14.38;6.97;;;6.30;99.90;;;;;;4826775;29;20045;-83
2022/10/12 05:06:21;;;;;;;15.63;7.15;;;6.20;99.90;;;;;;4830372;29;20049;-82
2022/10/12 05:08:47;;;;;;;10.45;7.40;;;6.30;99.90;;;;;;4818731;29;20045;-83
2022/10/12 05:11:13;;;;;;;14.32;7.47;;;6.20;99.90;;;;;;4855344;29;20044;-83
2022/10/12 05:13:38;;;;;;;13.65;6.93;;;6.30;99.90;;;;;;4844016;29;20050;-83
2022/10/12 05:16:04;;;;;;;14.02;7.03;;;6.10;99.90;;;;;;4856752;29;20053;-82
2022/10/12 05:18:30;;;;;;;11.45;5.78;;;6.20;99.90;;;;;;4859202;29;20041;-82
2022/10/12 05:20:56;;;;;;;11.35;6.43;;;6.10;99.90;;;;;;4825809;29;20046;-83
2022/10/12 05:23:21;;;;;;;12.23;6.47;;;6.00;99.90;;;;;;4856618;29;20042;-83
2022/10/12 05:25:47;;;;;;;10.27;6.32;;;6.00;99.90;;;;;;4859199;29;20075;-83
2022/10/12 05:28:13;;;;;;;10.88;5.25;;;6.00;99.90;;;;;;4831324;29;20097;-82
2022/10/12 05:30:41;;;;;;;10.65;5.28;;;6.20;99.90;;;;;;4850599;29;20038;-82
2022/10/12 05:33:07;;;;;;;10.70;6.07;;;6.00;99.90;;;;;;4840230;29;20046;-83
2022/10/12 05:35:32;;;;;;;13.18;5.88;;;6.10;99.90;;;;;;4790527;29;20110;-83
2022/10/12 05:37:58;;;;;;;13.93;6.10;;;6.00;99.90;;;;;;4842646;29;20064;-82
2022/10/12 05:40:23;;;;;;;13.13;5.90;;;6.00;99.90;;;;;;4817512;29;20041;-82
2022/10/12 05:42:49;;;;;;;12.63;5.80;;;5.80;99.90;;;;;;4814417;29;20069;-83
2022/10/12 05:45:15;;;;;;;10.13;5.50;;;6.00;99.90;;;;;;4829030;29;20042;-83
2022/10/12 05:47:41;;;;;;;11.50;5.75;;;5.80;99.90;;;;;;4833887;29;20042;-83
2022/10/12 05:50:07;;;;;;;9.80;5.72;;;5.90;99.90;;;;;;4808178;29;20286;-83
2022/10/12 05:52:33;;;;;;;11.30;6.32;;;5.80;99.90;;;;;;4831926;29;20472;-83
2022/10/12 05:54:59;;;;;;;7.95;5.22;;;5.90;99.90;;;;;;4812410;29;20045;-83
2022/10/12 05:57:24;;;;;;;13.18;5.82;;;5.90;99.90;;;;;;4857583;29;20086;-83
2022/10/12 05:59:50;;;;;;;7.05;5.15;;;5.90;99.90;;;;;;4840958;29;20474;-83
2022/10/12 06:02:16;;;;;;;11.88;6.00;;;5.70;99.90;;;;;;4842911;29;20054;-83
2022/10/12 06:04:42;;;;;;;13.43;6.15;;;5.90;99.90;;;;;;4845578;29;20168;-83
2022/10/12 06:07:08;;;;;;;11.75;6.10;;;5.80;99.90;;;;;;4841652;29;20185;-82
2022/10/12 06:09:37;;;;;;;10.35;6.10;;;5.80;99.90;;;;;;4844779;29;20038;-82
2022/10/12 06:12:04;;;;;;;32.15;7.05;;;5.80;99.90;;;;;;4844242;29;20053;-83
2022/10/12 06:14:30;;;;;;;12.75;6.50;;;5.80;99.90;;;;;;4841839;29;20046;-83
2022/10/12 06:16:55;;;;;;;13.20;7.57;;;5.80;99.90;;;;;;4827814;29;20046;-83
2022/10/12 06:19:21;;;;;;;10.65;6.28;;;5.80;99.90;;;;;;4831411;29;20062;-83
2022/10/12 06:21:47;;;;;;;10.35;6.88;;;5.80;99.90;;;;;;4845677;29;20570;-83
2022/10/12 06:24:12;;;;;;;14.50;7.50;;;5.80;99.90;;;;;;4823708;29;20050;-83
2022/10/12 06:26:39;;;;;;;16.80;7.75;;;5.90;99.90;;;;;;4835748;29;20052;-83
2022/10/12 06:29:04;;;;;;;13.75;7.70;;;5.80;99.90;;;;;;4845568;29;20097;-83
2022/10/12 06:31:32;;;;;;;18.10;8.05;;;5.90;99.90;;;;;;4837794;29;20104;-82
2022/10/12 06:33:58;;;;;;;13.20;7.32;;;5.90;99.90;;;;;;4830853;29;20418;-82
2022/10/12 06:36:24;;;;;;;15.52;7.68;;;6.00;99.90;;;;;;4824314;29;20476;-83
2022/10/12 06:38:50;;;;;;;14.93;7.70;;;5.90;99.90;;;;;;4845740;29;20378;-83
2022/10/12 06:41:16;;;;;;;16.52;7.93;;;6.10;99.90;;;;;;4849271;29;20037;-82
2022/10/12 06:43:41;;;;;;;15.45;7.82;;;6.00;99.90;;;;;;4859775;29;20042;-83
2022/10/12 06:46:10;;;;;;;13.93;7.72;;;6.10;99.90;;;;;;4860872;29;20417;-82
2022/10/12 06:48:36;;;;;;;15.90;8.43;;;6.00;99.90;;;;;;4826199;29;20042;-83
2022/10/12 06:51:02;;;;;;;17.08;8.73;;;6.20;99.90;;;;;;4833256;29;20041;-82
2022/10/12 06:53:31;;;;;;;13.05;7.82;;;6.30;99.90;;;;;;4818494;29;20583;-82
2022/10/12 06:56:07;;;;;;;15.77;8.48;;;6.20;99.90;;;;;;4862916;29;20397;-82
2022/10/12 06:58:32;;;;;;;14.02;7.95;;;6.40;99.90;;;;;;4842464;29;20129;-83
2022/10/12 07:01:03;;;;;;;21.00;9.13;;;6.50;99.90;;;;;;4859975;29;20058;-82
2022/10/12 07:03:29;;;;;;;19.17;9.07;;;6.50;99.90;;;;;;4862379;29;20098;-83
2022/10/12 07:05:54;;;;;;;15.80;9.52;;;6.50;99.90;;;;;;4861639;29;20532;-83
2022/10/12 07:08:21;;;;;;;20.42;9.38;;;6.70;99.90;;;;;;4846576;29;20129;-83
2022/10/12 07:10:46;;;;;;;14.93;8.93;;;6.60;99.90;;;;;;4856275;29;20049;-82
2022/10/12 07:13:13;;;;;;;18.75;9.30;;;6.80;99.90;;;;;;4848954;29;20421;-83
2022/10/12 07:15:38;;;;;;;18.15;9.77;;;6.80;99.90;;;;;;4831654;29;20466;-82
2022/10/12 07:18:04;;;;;;;20.30;9.95;;;6.80;99.90;;;;;;4837276;29;20138;-83
2022/10/12 07:20:30;;;;;;;18.67;10.15;;;7.10;99.90;;;;;;4841330;29;20077;-83
2022/10/12 07:22:58;;;;;;;19.58;10.32;;;7.00;99.90;;;;;;4846108;29;20122;-82
2022/10/12 07:25:24;;;;;;;20.65;10.40;;;7.20;99.90;;;;;;4848256;29;20050;-83
2022/10/12 07:27:50;;;;;;;21.60;10.85;;;7.40;99.90;;;;;;4846441;29;20060;-83
2022/10/12 07:30:15;;;;;;;22.08;10.90;;;7.30;99.90;;;;;;4848287;29;20033;-83
2022/10/12 07:32:43;;;;;;;19.08;11.27;;;7.50;99.90;;;;;;4862107;29;20254;-83
2022/10/12 07:35:08;;;;;;;24.52;10.98;;;7.60;99.90;;;;;;4840996;29;20565;-83
2022/10/12 07:37:34;;;;;;;20.40;11.27;;;7.70;99.90;;;;;;4822611;29;20042;-83
2022/10/12 07:40:00;;;;;;;22.33;11.35;;;7.80;99.90;;;;;;4831032;29;20182;-83
2022/10/12 07:42:25;;;;;;;27.42;11.82;;;7.80;99.90;;;;;;4839836;29;20056;-83
2022/10/12 07:44:51;;;;;;;20.27;11.25;;;8.00;99.90;;;;;;4833715;29;20041;-83
2022/10/12 07:47:18;;;;;;;24.15;11.90;;;8.10;99.90;;;;;;4845776;29;20069;-83
2022/10/12 07:49:43;;;;;;;21.95;12.10;;;8.30;99.90;;;;;;4844108;29;20506;-83
2022/10/12 07:52:09;;;;;;;21.38;11.73;;;8.40;99.90;;;;;;4806084;29;20424;-83
2022/10/12 07:54:35;;;;;;;21.45;10.70;;;8.50;99.90;;;;;;4829862;29;20042;-83
2022/10/12 07:57:00;;;;;;;19.85;12.40;;;8.60;99.90;;;;;;4835457;29;20054;-83
2022/10/12 07:59:30;;;;;;;24.27;12.60;;;8.70;99.90;;;;;;4850173;29;20058;-83
2022/10/12 08:01:55;;;;;;;21.23;12.02;;;8.80;99.90;;;;;;4833501;29;20081;-83
2022/10/12 08:04:21;;;;;;;21.63;11.52;;;8.90;99.90;;;;;;4844680;29;20058;-83
2022/10/12 08:06:46;;;;;;;24.98;12.48;;;9.00;99.90;;;;;;4829607;29;20045;-83
2022/10/12 08:09:12;;;;;;;20.58;11.10;;;9.10;99.90;;;;;;4858538;29;20049;-83
2022/10/12 08:11:41;;;;;;;20.88;10.80;;;9.20;99.90;;;;;;4831580;29;20057;-83
2022/10/12 08:14:12;;;;;;;19.40;11.15;;;9.30;99.90;;;;;;4833676;29;20046;-83
2022/10/12 08:16:38;;;;;;;21.08;10.35;;;9.50;99.90;;;;;;4848333;29;20042;-83
2022/10/12 08:19:03;;;;;;;17.10;10.65;;;9.70;99.90;;;;;;4865875;29;20140;-83
2022/10/12 08:21:29;;;;;;;22.98;11.35;;;9.70;99.90;;;;;;4834309;29;20042;-83
2022/10/12 08:23:55;;;;;;;19.45;10.40;;;9.90;99.90;;;;;;4842604;29;20455;-83
2022/10/12 08:26:20;;;;;;;18.08;10.00;;;10.00;99.90;;;;;;4829022;29;20424;-83
2022/10/12 08:28:46;;;;;;;21.48;9.90;;;9.90;99.90;;;;;;4832532;29;20038;-83
2022/10/12 08:31:16;;;;;;;21.15;10.13;;;10.00;99.90;;;;;;4821222;29;20043;-84
2022/10/12 08:33:42;;;;;;;18.88;8.90;;;10.00;99.90;;;;;;4822928;29;20053;-83
2022/10/12 08:36:10;;;;;;;13.02;8.65;;;10.10;99.90;;;;;;4848439;29;20812;-83
2022/10/12 08:38:38;;;;;;;14.63;8.70;;;10.30;99.90;;;;;;4833269;29;20046;-83
2022/10/12 08:41:10;;;;;;;15.73;8.02;;;10.30;99.90;;;;;;4843074;29;20050;-83
2022/10/12 08:43:54;;;;;;;19.15;8.40;;;10.30;99.90;;;;;;4821023;29;20041;-84
2022/10/12 08:46:22;;;;;;;12.17;8.33;;;10.40;99.90;;;;;;4857416;29;20580;-83
2022/10/12 08:49:15;;;;;;;18.33;8.15;;;10.50;99.90;;;;;;4829373;29;20407;-83
2022/10/12 08:51:56;;;;;;;20.77;8.07;;;10.40;99.90;;;;;;4815522;29;20438;-83
2022/10/12 08:54:25;;;;;;;18.10;6.90;;;10.30;99.90;;;;;;4833475;29;20349;-83
2022/10/12 08:56:54;;;;;;;17.75;6.38;;;10.40;99.90;;;;;;4855343;29;20049;-83
2022/10/12 08:59:21;;;;;;;9.55;5.75;;;10.30;99.90;;;;;;4811684;29;20400;-83
2022/10/12 09:01:58;;;;;;;11.77;5.50;;;10.30;99.90;;;;;;4816324;29;20454;-83
2022/10/12 09:04:50;;;;;;;18.20;5.97;;;10.20;99.90;;;;;;4842872;29;20046;-83
2022/10/12 09:07:35;;;;;;;13.57;5.50;;;10.20;99.90;;;;;;4844940;29;20481;-83
2022/10/12 09:10:27;;;;;;;14.60;5.82;;;10.20;99.90;;;;;;4845839;29;20053;-83
2022/10/12 09:13:04;;;;;;;13.18;5.38;;;10.20;99.90;;;;;;4837534;29;20061;-83
2022/10/12 09:15:40;;;;;;;9.75;5.15;;;10.20;99.90;;;;;;4846517;29;20053;-83
2022/10/12 09:18:17;;;;;;;8.98;4.72;;;10.20;99.90;;;;;;4828146;29;20081;-83
2022/10/12 09:20:52;;;;;;;17.33;5.38;;;10.40;99.90;;;;;;4844191;29;20046;-83
2022/10/12 09:23:29;;;;;;;11.75;4.97;;;10.40;99.90;;;;;;4847480;29;20044;-83
2022/10/12 09:26:05;;;;;;;12.73;5.43;;;10.70;99.90;;;;;;4835438;29;20053;-83
2022/10/12 09:28:56;;;;;;;12.63;5.00;;;10.90;99.90;;;;;;4833386;29;20182;-83
2022/10/12 09:31:46;;;;;;;10.70;5.40;;;11.10;99.90;;;;;;4856854;29;20057;-83
2022/10/12 09:34:12;;;;;;;12.48;4.90;;;11.20;99.90;;;;;;4832031;29;20135;-83
2022/10/12 09:36:40;;;;;;;14.70;5.60;;;11.30;99.90;;;;;;4831418;29;20226;-83
2022/10/12 09:39:17;;;;;;;12.88;5.20;;;11.50;1.00;;;;;;4831812;29;20049;-83
2022/10/12 09:41:44;;;;;;;16.52;4.75;;;11.80;99.90;;;;;;4850228;29;20050;-83
2022/10/12 09:44:35;;;;;;;14.45;5.20;;;11.80;99.90;;;;;;4834068;29;20045;-83
2022/10/12 09:47:03;;;;;;;9.15;4.07;;;12.00;99.90;;;;;;4807926;29;20061;-84
2022/10/12 09:49:45;;;;;;;11.15;4.32;;;12.10;99.90;;;;;;4844602;29;20082;-83
2022/10/12 09:52:14;;;;;;;9.80;4.20;;;12.00;99.90;;;;;;4829466;29;20065;-84
2022/10/12 09:54:46;;;;;;;11.43;4.60;;;12.10;1.00;;;;;;4848105;29;20049;-83
2022/10/12 09:57:18;;;;;;;10.50;4.05;;;12.30;99.90;;;;;;4829138;29;20148;-83
2022/10/12 09:59:44;;;;;;;9.48;3.97;;;12.50;1.00;;;;;;4830588;29;20042;-83
2022/10/12 10:02:10;;;;;;;10.55;3.58;;;12.60;1.00;;;;;;4847120;29;20049;-84
2022/10/12 10:04:36;;;;;;;10.02;3.83;;;12.70;99.90;;;;;;4828471;29;20096;-83
2022/10/12 10:07:20;;;;;;;15.95;3.45;;;12.70;1.00;;;;;;4823890;29;20038;-83
2022/10/12 10:09:48;;;;;;;9.70;3.50;;;12.80;99.90;;;;;;4859290;29;20049;-84
2022/10/12 10:12:25;;;;;;;12.80;3.67;;;12.80;99.90;;;;;;4849538;29;20425;-83
2022/10/12 10:14:55;;;;;;;6.55;3.10;;;13.10;1.00;;;;;;4838244;29;20116;-83
2022/10/12 10:17:31;;;;;;;11.15;3.42;;;13.10;99.90;;;;;;4836207;29;20054;-83
2022/10/12 10:19:59;;;;;;;11.77;3.35;;;13.10;99.90;;;;;;4841230;29;20053;-83
2022/10/12 10:22:25;;;;;;;13.55;4.03;;;13.10;99.90;;;;;;4818923;29;20049;-83
2022/10/12 10:24:54;;;;;;;9.95;3.28;;;13.30;99.90;;;;;;4838666;29;20054;-83
2022/10/12 10:27:37;;;;;;;10.15;3.58;;;13.20;1.00;;;;;;4849585;29;20037;-83
2022/10/12 10:30:29;;;;;;;7.07;3.13;;;13.30;99.90;;;;;;4828090;29;20248;-83
2022/10/12 10:33:17;;;;;;;12.93;3.78;;;13.20;99.90;;;;;;4831953;29;20129;-84
2022/10/12 10:36:19;;;;;;;8.63;3.40;;;13.30;1.00;;;;;;4846815;29;20051;-84
2022/10/12 10:39:06;;;;;;;8.65;3.10;;;13.30;13.90;;;;;;4836497;29;20044;-83
2022/10/12 10:41:50;;;;;;;7.25;2.97;;;13.50;1.00;;;;;;4858240;29;20421;-83
2022/10/12 10:44:35;;;;;;;8.70;3.15;;;13.60;1.00;;;;;;4856920;29;20496;-84
2022/10/12 10:47:20;;;;;;;12.25;3.28;;;13.90;99.90;;;;;;4844914;29;20121;-84
2022/10/12 10:50:01;;;;;;;8.40;2.95;;;14.00;99.90;;;;;;4845934;29;20432;-84
2022/10/12 10:52:30;;;;;;;8.82;2.40;;;13.90;99.90;;;;;;4836725;29;20057;-84
2022/10/12 10:55:18;;;;;;;8.45;2.85;;;14.10;99.90;;;;;;4865576;29;20569;-84
2022/10/12 10:58:03;;;;;;;10.45;3.05;;;14.20;1.00;;;;;;4861855;29;20288;-83
2022/10/12 11:00:36;;;;;;;12.32;2.85;;;14.20;1.00;;;;;;4844679;29;20086;-84
2022/10/12 11:03:12;;;;;;;12.02;2.90;;;14.20;1.00;;;;;;4858539;29;20123;-84
2022/10/12 11:05:44;;;;;;;9.10;3.22;;;14.50;99.90;;;;;;4844617;29;20033;-84
2022/10/12 11:08:22;;;;;;;7.03;2.35;;;14.50;99.90;;;;;;4849869;29;20566;-83
2022/10/12 11:10:58;;;;;;;8.10;2.40;;;14.70;1.00;;;;;;4847454;29;20609;-84
2022/10/12 11:13:31;;;;;;;6.53;2.47;;;14.70;99.90;;;;;;4834608;29;20148;-83
2022/10/12 11:16:20;;;;;;;10.10;2.53;;;14.70;51.00;;;;;;4858269;29;20037;-84
2022/10/12 11:18:52;;;;;;;10.30;2.42;;;14.80;30.60;;;;;;4843161;29;20042;-83
2022/10/12 11:21:31;;;;;;;5.97;2.30;;;14.60;99.90;;;;;;4834817;29;20387;-83
2022/10/12 11:24:34;;;;;;;5.72;2.30;;;14.90;28.80;;;;;;4839360;29;20517;-84
2022/10/12 11:27:38;;;;;;;8.27;3.30;;;14.90;99.90;;;;;;4854499;29;20522;-85
2022/10/12 11:30:16;;;;;;;8.57;2.38;;;15.00;99.90;;;;;;4845950;29;20050;-84
2022/10/12 11:33:20;;;;;;;5.28;2.00;;;15.10;99.90;;;;;;4862285;29;20522;-83
2022/10/12 11:35:46;;;;;;;5.22;2.17;;;15.20;99.90;;;;;;4814883;29;20064;-83
2022/10/12 11:38:33;;;;;;;6.68;2.40;;;15.30;99.90;;;;;;4844010;29;20080;-83
2022/10/12 11:41:24;;;;;;;6.80;2.50;;;15.30;99.90;;;;;;4835513;29;20054;-83
2022/10/12 11:44:00;;;;;;;5.72;1.80;;;15.30;1.00;;;;;;4828231;29;20054;-84
2022/10/12 11:47:11;;;;;;;5.43;2.00;;;15.40;1.00;;;;;;4814061;29;20045;-84
2022/10/12 11:49:50;;;;;;;5.85;2.80;;;15.50;1.00;;;;;;4848487;29;20038;-84
2022/10/12 11:52:18;;;;;;;5.70;2.45;;;15.60;1.00;;;;;;4836114;29;20037;-83
2022/10/12 11:54:59;;;;;;;7.65;2.20;;;15.60;1.00;;;;;;4833891;29;20058;-84
2022/10/12 11:57:30;;;;;;;6.00;2.30;;;15.60;99.90;;;;;;4863591;29;20069;-84
2022/10/12 12:00:02;;;;;;;6.47;1.85;;;15.70;99.90;;;;;;4855498;29;20510;-84
2022/10/12 12:02:38;;;;;;;5.65;1.85;;;15.90;99.90;;;;;;4838892;29;20384;-83
2022/10/12 12:05:14;;;;;;;8.48;2.00;;;15.90;99.90;;;;;;4859543;29;20054;-83
2022/10/12 12:07:55;;;;;;;9.20;2.40;;;15.90;99.90;;;;;;4845939;29;20128;-83
2022/10/12 12:10:24;;;;;;;5.53;1.70;;;15.80;99.90;;;;;;4847924;29;20166;-84
2022/10/12 12:13:25;;;;;;;7.70;2.10;;;15.80;99.90;;;;;;4833632;29;20106;-83
2022/10/12 12:15:51;;;;;;;9.25;2.22;;;16.00;99.90;;;;;;4808177;29;20058;-83
2022/10/12 12:18:25;;;;;;;8.75;2.30;;;15.90;99.90;;;;;;4830855;29;20434;-84
2022/10/12 12:21:08;;;;;;;7.43;1.75;;;16.00;99.90;;;;;;4862687;29;20400;-83
2022/10/12 12:23:50;;;;;;;6.50;1.90;;;16.00;99.90;;;;;;4847890;29;20045;-83
2022/10/12 12:26:17;;;;;;;6.95;1.88;;;16.20;99.90;;;;;;4829831;29;20038;-83
2022/10/12 12:29:10;;;;;;;7.07;2.00;;;16.10;72.00;;;;;;4859556;29;20056;-83
2022/10/12 12:31:36;;;;;;;8.10;2.45;;;16.20;97.70;;;;;;4858293;29;20112;-84
2022/10/12 12:34:14;;;;;;;9.63;2.10;;;16.50;99.90;;;;;;4847687;29;20474;-84
2022/10/12 12:36:45;;;;;;;8.40;2.47;;;16.30;99.90;;;;;;4848140;29;20125;-84
2022/10/12 12:39:22;;;;;;;7.50;2.00;;;16.40;99.90;;;;;;4839689;29;20058;-84
2022/10/12 12:41:57;;;;;;;7.63;2.40;;;16.60;84.80;;;;;;4844736;29;20193;-83
2022/10/12 12:44:43;;;;;;;5.35;1.92;;;16.70;99.90;;;;;;4834172;29;20053;-84
2022/10/12 12:47:09;;;;;;;5.53;2.40;;;16.60;99.90;;;;;;4846053;29;20055;-84
2022/10/12 12:49:53;;;;;;;5.88;2.33;;;16.70;94.90;;;;;;4863988;29;20045;-83
2022/10/12 12:52:26;;;;;;;7.30;1.83;;;16.70;36.30;;;;;;4846214;29;20598;-84
2022/10/12 12:55:30;;;;;;;8.18;2.13;;;17.10;99.90;;;;;;4811391;29;20046;-84
2022/10/12 12:58:07;;;;;;;5.50;1.85;;;16.80;99.90;;;;;;4825588;29;20148;-84
2022/10/12 13:01:12;;;;;;;9.68;2.40;;;16.90;1.00;;;;;;4830466;29;20584;-84
2022/10/12 13:03:53;;;;;;;5.53;1.85;;;16.80;2.50;;;;;;4847255;29;20123;-84
2022/10/12 13:06:38;;;;;;;3.80;2.00;;;17.10;51.80;;;;;;4840004;29;20097;-84
2022/10/12 13:09:23;;;;;;;6.72;2.10;;;16.80;60.80;;;;;;4832419;29;20128;-84